Terminal Aerodrome Forecast
Issued by NWS

Home | Current Version | Previous Version | Text Only | Print | Product List | Glossary On
Versions: 1 2 3 4 5 6 7 8 9 10 11 12 13 14 15 16 17 18 19 20 21 22 23 24 25 26 27 28 29 30 31 32 33 34 35
000
FTUS44 KFWD 272111 AAB
TAFFTW
TAF AMD
KFTW 272111Z 2721/2818 01007KT 1SM -SN FEW015 BKN018 OVC030
      TEMPO 2721/2723 1/4SM SN FZFG VV007
     FM272300 05010KT 3SM -SN OVC015
     FM280500 07010KT 3SM -FZDZSN BR OVC010
     FM280800 07008KT 2SM -FZDZ BR OVC007=

USA.gov is the U.S. government's official web portal to all federal, state and local government web resources and services.